Time;durP1;ratioP1;P1;durP2;ratioP2;P2;SDS_P1;SDS_P2;PMS_P1;PMS_P2;Temp;Humidity;BMP_temperature;BMP_pressure;BME280_temperature;BME280_humidity;BME280_pressure;Samples;Min_cycle;Max_cycle;Signal;HPM_P1;HPM_P2
2021/04/24 00:00:00;;;;;;;13.40;12.00;;;10.90;81.20;;;;;;4969968;28;20256;-73
2021/04/24 00:02:27;;;;;;;12.63;11.43;;;10.90;81.80;;;;;;4965322;28;20325;-74
2021/04/24 00:04:53;;;;;;;14.77;12.00;;;10.80;82.20;;;;;;4963507;28;20229;-72
2021/04/24 00:07:20;;;;;;;15.70;12.03;;;10.80;82.60;;;;;;4963166;28;20213;-73
2021/04/24 00:09:48;;;;;;;11.50;10.30;;;10.80;82.80;;;;;;4965914;28;20645;-73
2021/04/24 00:12:16;;;;;;;12.40;11.10;;;10.80;82.90;;;;;;4960145;28;20314;-73
2021/04/24 00:14:43;;;;;;;12.37;10.43;;;10.80;82.60;;;;;;4964881;28;20873;-73
2021/04/24 00:17:09;;;;;;;11.50;10.30;;;10.80;82.40;;;;;;4962467;28;20232;-73
2021/04/24 00:19:36;;;;;;;11.03;10.03;;;10.80;82.40;;;;;;4966156;28;20241;-73
2021/04/24 00:22:03;;;;;;;10.13;9.10;;;10.70;82.30;;;;;;4964013;28;20224;-73
2021/04/24 00:24:29;;;;;;;12.67;11.37;;;10.70;82.10;;;;;;4971932;28;20227;-73
2021/04/24 00:26:56;;;;;;;12.63;11.43;;;10.60;82.50;;;;;;4962423;28;20284;-73
2021/04/24 00:29:22;;;;;;;18.73;12.07;;;10.60;83.10;;;;;;4958816;28;20654;-73
2021/04/24 00:31:49;;;;;;;14.37;12.87;;;10.50;83.40;;;;;;4963280;28;20554;-73
2021/04/24 00:34:16;;;;;;;12.27;10.73;;;10.50;83.60;;;;;;4963758;28;20253;-73
2021/04/24 00:36:43;;;;;;;12.67;11.37;;;10.50;83.80;;;;;;4970146;28;20741;-73
2021/04/24 00:39:10;;;;;;;12.90;10.70;;;10.50;83.40;;;;;;4965176;28;20333;-73
2021/04/24 00:41:36;;;;;;;13.57;11.57;;;10.50;83.20;;;;;;4964508;28;20218;-73
2021/04/24 00:44:04;;;;;;;13.70;11.63;;;10.50;83.10;;;;;;4964806;28;20327;-73
2021/04/24 00:46:30;;;;;;;15.60;12.13;;;10.50;83.10;;;;;;4966992;28;20280;-73
2021/04/24 00:48:57;;;;;;;15.07;11.60;;;10.50;83.20;;;;;;4964608;28;20232;-72
2021/04/24 00:51:29;;;;;;;15.07;13.57;;;10.40;83.00;;;;;;4962180;28;20288;-73
2021/04/24 00:53:55;;;;;;;15.10;13.60;;;10.40;83.00;;;;;;4958037;28;20256;-72
2021/04/24 00:56:22;;;;;;;10.83;9.73;;;10.40;83.30;;;;;;4964028;28;20652;-73
2021/04/24 00:58:48;;;;;;;13.30;10.57;;;10.40;83.90;;;;;;4963787;28;20549;-72
2021/04/24 01:01:17;;;;;;;13.23;10.97;;;10.30;84.30;;;;;;5002648;28;20236;-72
2021/04/24 01:03:44;;;;;;;13.20;11.80;;;10.30;84.40;;;;;;4998307;28;20216;-73
2021/04/24 01:06:11;;;;;;;15.07;12.67;;;10.30;84.50;;;;;;5006630;28;20232;-73
2021/04/24 01:08:38;;;;;;;13.10;11.70;;;10.30;84.60;;;;;;5008620;28;20219;-73
2021/04/24 01:11:05;;;;;;;14.10;12.30;;;10.20;84.80;;;;;;5005915;28;20567;-72
2021/04/24 01:13:31;;;;;;;16.27;12.93;;;10.20;85.00;;;;;;5009158;28;20219;-73
2021/04/24 01:15:58;;;;;;;13.50;12.03;;;10.20;85.10;;;;;;5002121;28;20279;-73
2021/04/24 01:18:25;;;;;;;13.13;11.33;;;10.20;85.20;;;;;;5008063;28;20231;-73
2021/04/24 01:20:55;;;;;;;15.13;12.50;;;10.30;85.40;;;;;;5006031;28;20595;-72
2021/04/24 01:23:23;;;;;;;15.83;11.23;;;10.30;85.30;;;;;;5005870;28;20216;-73
2021/04/24 01:25:50;;;;;;;13.77;12.27;;;10.30;85.30;;;;;;4990459;28;20219;-73
2021/04/24 01:28:17;;;;;;;16.00;12.27;;;10.20;85.30;;;;;;5005595;28;20224;-72
2021/04/24 01:30:45;;;;;;;14.33;12.80;;;10.20;85.40;;;;;;4990459;28;20239;-73
2021/04/24 01:33:14;;;;;;;13.63;11.97;;;10.20;85.40;;;;;;5008104;28;20224;-73
2021/04/24 01:35:44;;;;;;;13.73;12.13;;;10.20;85.40;;;;;;5005918;28;20227;-73
2021/04/24 01:38:11;;;;;;;14.17;12.67;;;10.20;85.30;;;;;;4988290;28;20255;-72
2021/04/24 01:40:39;;;;;;;15.17;13.67;;;10.20;85.40;;;;;;4990661;28;20239;-73
2021/04/24 01:43:06;;;;;;;13.90;12.40;;;10.20;85.50;;;;;;5009208;28;20243;-74
2021/04/24 01:45:34;;;;;;;15.23;11.80;;;10.20;85.60;;;;;;5005570;28;20220;-73
2021/04/24 01:48:01;;;;;;;14.23;12.13;;;10.20;85.40;;;;;;4998194;28;20224;-72
2021/04/24 01:50:33;;;;;;;12.67;10.83;;;10.20;85.20;;;;;;5005091;28;20735;-73
2021/04/24 01:53:02;;;;;;;13.63;11.07;;;10.10;85.20;;;;;;5004769;28;20602;-72
2021/04/24 01:55:31;;;;;;;12.73;11.40;;;10.10;85.20;;;;;;5004461;28;20228;-73
2021/04/24 01:58:00;;;;;;;13.43;11.57;;;10.10;85.40;;;;;;4996348;28;20295;-72
2021/04/24 02:00:37;;;;;;;17.30;11.77;;;10.10;85.50;;;;;;5004000;28;20695;-72
2021/04/24 02:03:08;;;;;;;13.87;12.07;;;10.10;85.50;;;;;;4990812;28;20220;-72
2021/04/24 02:05:35;;;;;;;14.67;11.13;;;10.00;85.50;;;;;;5005911;28;20216;-72
2021/04/24 02:08:07;;;;;;;13.13;9.87;;;10.00;85.70;;;;;;4999808;28;20215;-72
2021/04/24 02:10:35;;;;;;;14.33;11.27;;;10.00;85.80;;;;;;5000887;28;20215;-72
2021/04/24 02:13:11;;;;;;;15.80;9.83;;;10.00;85.80;;;;;;5000680;28;20319;-72
2021/04/24 02:15:39;;;;;;;11.33;9.77;;;9.90;85.70;;;;;;5006655;28;20258;-73
2021/04/24 02:18:06;;;;;;;11.10;9.33;;;9.90;85.80;;;;;;5006337;28;20216;-72
2021/04/24 02:20:35;;;;;;;13.10;10.17;;;9.90;85.80;;;;;;5009517;28;20286;-72
2021/04/24 02:23:03;;;;;;;10.83;9.57;;;9.90;85.60;;;;;;5004260;28;20686;-72
2021/04/24 02:25:30;;;;;;;17.17;11.30;;;9.80;85.40;;;;;;5009519;28;20216;-72
2021/04/24 02:27:56;;;;;;;12.97;10.33;;;9.80;85.50;;;;;;5007177;28;20315;-72
2021/04/24 02:30:25;;;;;;;13.87;10.57;;;9.70;85.70;;;;;;5006780;28;20558;-72
2021/04/24 02:32:51;;;;;;;12.53;10.90;;;9.70;85.70;;;;;;5008439;28;20220;-72
2021/04/24 02:35:51;;;;;;;11.97;10.67;;;9.70;85.70;;;;;;5005218;28;20223;-72
2021/04/24 02:38:30;;;;;;;13.67;11.03;;;9.70;85.80;;;;;;4999187;28;20231;-72
2021/04/24 02:41:01;;;;;;;12.83;11.40;;;9.70;85.80;;;;;;5004533;28;20248;-72
2021/04/24 02:43:28;;;;;;;18.77;11.40;;;9.70;85.90;;;;;;5007331;28;20561;-72
2021/04/24 02:45:55;;;;;;;16.77;11.83;;;9.70;86.20;;;;;;5003153;28;20222;-73
2021/04/24 02:48:21;;;;;;;11.20;10.13;;;9.70;86.30;;;;;;5004459;28;20549;-72
2021/04/24 02:50:49;;;;;;;10.97;9.87;;;9.60;86.20;;;;;;5007379;28;20215;-73
2021/04/24 02:53:16;;;;;;;14.43;11.20;;;9.60;86.10;;;;;;5007415;28;20552;-73
2021/04/24 02:55:43;;;;;;;12.40;9.83;;;9.60;86.10;;;;;;4999829;28;20594;-73
2021/04/24 02:58:10;;;;;;;16.70;11.63;;;9.60;86.10;;;;;;4986409;28;20220;-72
2021/04/24 03:00:36;;;;;;;10.33;9.23;;;9.50;86.20;;;;;;5003648;28;20244;-72
2021/04/24 03:03:06;;;;;;;11.77;8.97;;;9.50;86.00;;;;;;4997191;28;20327;-72
2021/04/24 03:05:33;;;;;;;14.13;11.50;;;9.30;85.40;;;;;;5004302;28;20613;-73
2021/04/24 03:08:02;;;;;;;13.93;10.90;;;9.20;85.40;;;;;;5003862;28;20632;-73
2021/04/24 03:10:28;;;;;;;13.37;11.37;;;9.10;85.80;;;;;;5006174;28;20575;-73
2021/04/24 03:12:56;;;;;;;11.00;9.90;;;9.10;86.10;;;;;;5004074;28;20668;-73
2021/04/24 03:15:22;;;;;;;11.17;8.93;;;9.10;86.10;;;;;;5002718;28;20697;-73
2021/04/24 03:17:50;;;;;;;11.33;9.30;;;9.10;86.10;;;;;;5002678;28;20247;-73
2021/04/24 03:20:19;;;;;;;11.37;9.60;;;9.10;85.90;;;;;;5002954;28;20343;-72
2021/04/24 03:22:47;;;;;;;11.07;9.83;;;9.00;86.00;;;;;;5003655;28;20246;-72
2021/04/24 03:25:14;;;;;;;11.77;9.47;;;9.00;85.80;;;;;;5005751;28;20216;-72
2021/04/24 03:27:41;;;;;;;10.27;9.20;;;9.00;85.60;;;;;;5002013;28;20628;-72
2021/04/24 03:30:11;;;;;;;11.03;9.23;;;8.90;85.70;;;;;;5004394;28;20553;-72
2021/04/24 03:32:39;;;;;;;10.97;8.83;;;8.90;85.80;;;;;;5002739;28;20751;-72
2021/04/24 03:35:07;;;;;;;11.37;9.20;;;8.80;85.80;;;;;;5003088;28;20220;-72
2021/04/24 03:37:33;;;;;;;14.63;8.50;;;8.80;85.90;;;;;;5004241;28;20583;-72
2021/04/24 03:40:00;;;;;;;10.80;9.53;;;8.80;85.90;;;;;;5005446;28;20240;-74
2021/04/24 03:42:27;;;;;;;11.40;9.93;;;8.80;85.90;;;;;;4988787;28;20241;-72
2021/04/24 03:44:53;;;;;;;12.73;10.80;;;8.70;85.90;;;;;;4985096;28;20228;-73
2021/04/24 03:47:20;;;;;;;12.87;10.67;;;8.70;85.90;;;;;;5004863;28;20543;-73
2021/04/24 03:49:47;;;;;;;14.37;10.97;;;8.70;86.00;;;;;;5006690;28;20225;-73
2021/04/24 03:52:13;;;;;;;15.10;11.67;;;8.60;86.00;;;;;;5003418;28;20226;-72
2021/04/24 03:54:40;;;;;;;12.87;11.00;;;8.60;86.10;;;;;;5004067;28;20227;-72
2021/04/24 03:57:07;;;;;;;15.10;10.57;;;8.50;86.40;;;;;;5005901;28;20220;-72
2021/04/24 03:59:34;;;;;;;13.87;10.93;;;8.60;86.40;;;;;;5006129;28;20256;-72
2021/04/24 04:02:01;;;;;;;13.17;10.97;;;8.50;86.40;;;;;;5004376;28;20220;-73
2021/04/24 04:04:28;;;;;;;18.10;11.87;;;8.50;86.50;;;;;;5001670;28;20647;-73
2021/04/24 04:06:54;;;;;;;14.00;10.50;;;8.50;86.60;;;;;;5005248;28;20220;-73
2021/04/24 04:09:21;;;;;;;12.20;9.90;;;8.50;86.70;;;;;;5002096;28;20216;-72
2021/04/24 04:11:47;;;;;;;13.53;9.67;;;8.50;86.50;;;;;;5004122;28;20219;-72
2021/04/24 04:14:13;;;;;;;10.70;9.57;;;8.50;86.20;;;;;;5007385;28;20216;-72
2021/04/24 04:16:41;;;;;;;12.33;11.03;;;8.40;85.90;;;;;;5002124;28;20239;-72
2021/04/24 04:19:07;;;;;;;10.73;8.97;;;8.40;85.80;;;;;;4994724;28;20224;-72
2021/04/24 04:21:35;;;;;;;13.10;11.20;;;8.40;85.40;;;;;;5004862;28;20243;-72
2021/04/24 04:24:02;;;;;;;10.17;9.17;;;8.30;84.30;;;;;;5004380;28;20649;-72
2021/04/24 04:26:29;;;;;;;13.20;9.60;;;8.10;85.00;;;;;;5003996;28;20214;-72
2021/04/24 04:28:56;;;;;;;12.20;9.50;;;8.00;85.10;;;;;;4995119;28;20656;-72
2021/04/24 04:31:23;;;;;;;11.30;9.97;;;8.00;85.20;;;;;;5002720;28;20228;-72
2021/04/24 04:33:50;;;;;;;10.23;8.90;;;8.00;85.20;;;;;;4989809;28;20644;-72
2021/04/24 04:36:17;;;;;;;14.60;10.87;;;7.90;84.70;;;;;;5005312;28;20675;-72
2021/04/24 04:38:44;;;;;;;12.90;10.70;;;7.80;84.50;;;;;;5008255;28;20233;-72
2021/04/24 04:41:11;;;;;;;13.50;9.97;;;7.80;85.40;;;;;;5006098;28;20251;-72
2021/04/24 04:43:38;;;;;;;13.77;10.73;;;7.80;86.10;;;;;;5009181;28;20334;-72
2021/04/24 04:46:06;;;;;;;15.27;11.27;;;7.90;86.20;;;;;;5004489;28;20223;-72
2021/04/24 04:48:33;;;;;;;13.73;12.03;;;8.00;86.40;;;;;;5009048;28;20226;-72
2021/04/24 04:51:00;;;;;;;11.93;10.67;;;8.00;86.60;;;;;;5005352;28;20222;-72
2021/04/24 04:53:26;;;;;;;10.83;9.67;;;8.10;86.90;;;;;;5007674;28;20227;-72
2021/04/24 04:56:13;;;;;;;12.73;10.40;;;8.20;86.60;;;;;;5007038;28;20228;-72
2021/04/24 04:58:40;;;;;;;13.67;10.37;;;8.30;86.30;;;;;;5006538;28;20227;-72
2021/04/24 05:01:11;;;;;;;11.60;10.50;;;8.40;86.30;;;;;;5005857;28;20563;-73
2021/04/24 05:03:38;;;;;;;11.53;10.33;;;8.50;86.30;;;;;;5007817;28;20216;-72
2021/04/24 05:06:05;;;;;;;13.87;11.37;;;8.60;86.20;;;;;;5007794;28;20207;-72
2021/04/24 05:08:35;;;;;;;14.57;10.93;;;8.80;86.20;;;;;;5005658;28;20231;-72
2021/04/24 05:11:06;;;;;;;11.83;10.63;;;8.90;86.10;;;;;;5007674;28;20220;-72
2021/04/24 05:13:33;;;;;;;13.57;11.00;;;9.10;86.20;;;;;;5009876;28;20216;-72
2021/04/24 05:16:00;;;;;;;11.47;10.30;;;9.40;86.00;;;;;;4997505;28;20221;-72
2021/04/24 05:18:27;;;;;;;13.33;10.97;;;9.70;85.30;;;;;;4997447;28;20632;-72
2021/04/24 05:20:54;;;;;;;12.33;9.70;;;10.10;84.30;;;;;;4990355;28;20235;-72
2021/04/24 05:23:21;;;;;;;11.40;9.43;;;10.70;83.30;;;;;;5005078;28;20223;-73
2021/04/24 05:25:48;;;;;;;11.57;10.37;;;11.30;81.90;;;;;;4990366;28;20216;-72
2021/04/24 05:28:14;;;;;;;12.93;8.93;;;12.00;80.10;;;;;;5007129;28;20228;-72
2021/04/24 05:30:41;;;;;;;10.57;9.57;;;12.50;77.90;;;;;;5008723;28;20252;-73
2021/04/24 05:33:08;;;;;;;10.83;9.73;;;13.00;76.60;;;;;;5004757;28;20223;-73
2021/04/24 05:35:34;;;;;;;10.37;9.10;;;13.40;75.60;;;;;;5005687;28;20242;-72
2021/04/24 05:38:01;;;;;;;10.33;9.23;;;13.60;74.70;;;;;;5006463;28;20216;-72
2021/04/24 05:40:28;;;;;;;9.53;8.13;;;13.60;74.60;;;;;;5004502;28;20236;-72
2021/04/24 05:42:55;;;;;;;12.10;8.83;;;13.60;74.20;;;;;;5007337;28;20223;-72
2021/04/24 05:45:21;;;;;;;12.03;8.47;;;13.60;74.10;;;;;;5002969;28;20213;-72
2021/04/24 05:47:50;;;;;;;9.73;7.73;;;13.60;74.20;;;;;;4990953;28;20216;-72
2021/04/24 05:50:20;;;;;;;9.57;8.67;;;13.70;74.20;;;;;;5006666;28;20262;-72
2021/04/24 05:52:53;;;;;;;10.30;7.60;;;13.70;74.30;;;;;;5007242;28;20679;-72
2021/04/24 05:55:19;;;;;;;9.40;7.33;;;13.80;74.40;;;;;;4987323;28;20227;-72
2021/04/24 05:57:46;;;;;;;9.03;7.27;;;13.90;74.10;;;;;;5006408;28;20227;-72
2021/04/24 06:00:16;;;;;;;8.60;7.67;;;14.10;73.60;;;;;;5003500;28;20248;-73
2021/04/24 06:02:43;;;;;;;8.97;8.07;;;14.20;72.70;;;;;;4998237;28;20271;-72
2021/04/24 06:05:11;;;;;;;8.50;7.70;;;14.30;72.20;;;;;;5005110;28;20652;-72
2021/04/24 06:07:38;;;;;;;10.93;8.23;;;14.50;72.00;;;;;;5005205;28;20216;-72
2021/04/24 06:10:07;;;;;;;8.90;8.07;;;14.70;71.50;;;;;;5007380;28;20231;-72
2021/04/24 06:12:33;;;;;;;12.13;8.27;;;14.90;70.90;;;;;;4996615;28;20307;-72
2021/04/24 06:15:00;;;;;;;9.43;8.50;;;15.10;70.80;;;;;;5005550;28;20216;-73
2021/04/24 06:17:26;;;;;;;10.50;9.43;;;15.30;70.60;;;;;;5006965;28;20813;-73
2021/04/24 06:19:53;;;;;;;10.17;9.27;;;15.50;69.80;;;;;;5003513;28;20310;-73
2021/04/24 06:22:20;;;;;;;11.93;9.80;;;15.60;68.80;;;;;;4988071;28;20235;-72
2021/04/24 06:24:46;;;;;;;11.57;10.37;;;15.70;68.80;;;;;;4989262;28;20209;-72
2021/04/24 06:27:14;;;;;;;11.20;10.20;;;15.80;68.90;;;;;;5009070;28;20231;-72
2021/04/24 06:29:40;;;;;;;11.93;10.73;;;15.90;68.60;;;;;;4988694;28;20960;-72
2021/04/24 06:32:07;;;;;;;13.07;10.93;;;15.90;69.00;;;;;;5004929;28;20702;-72
2021/04/24 06:34:34;;;;;;;15.30;12.73;;;16.00;69.60;;;;;;5004175;28;20311;-72
2021/04/24 06:37:01;;;;;;;20.03;12.63;;;16.10;68.90;;;;;;5003524;28;20550;-72
2021/04/24 06:39:28;;;;;;;14.23;12.60;;;16.10;69.00;;;;;;5007503;28;20220;-72
2021/04/24 06:41:54;;;;;;;16.30;13.40;;;16.30;68.70;;;;;;5004175;28;20665;-72
2021/04/24 06:44:21;;;;;;;15.90;13.67;;;16.50;68.40;;;;;;5007934;28;20220;-72
2021/04/24 06:46:48;;;;;;;20.00;16.43;;;16.70;67.20;;;;;;5002474;28;20226;-72
2021/04/24 06:49:14;;;;;;;16.37;13.87;;;16.90;66.10;;;;;;5005261;28;20240;-72
2021/04/24 06:51:41;;;;;;;22.47;16.27;;;17.10;65.00;;;;;;5003777;28;20224;-72
2021/04/24 06:54:08;;;;;;;20.50;14.73;;;17.30;64.80;;;;;;5006331;28;20228;-72
2021/04/24 06:56:35;;;;;;;16.17;14.57;;;17.40;63.70;;;;;;5005502;28;20632;-72
2021/04/24 06:59:03;;;;;;;16.30;14.70;;;17.40;63.60;;;;;;5005247;28;20306;-72
2021/04/24 07:01:30;;;;;;;43.80;25.60;;;17.40;63.60;;;;;;5002743;28;20252;-72
2021/04/24 07:03:57;;;;;;;17.13;14.90;;;17.50;64.50;;;;;;5005448;28;20226;-72
2021/04/24 07:06:24;;;;;;;19.97;16.23;;;17.50;64.50;;;;;;5004920;28;20221;-72
2021/04/24 07:08:50;;;;;;;18.17;16.23;;;17.60;63.80;;;;;;5003430;28;20219;-72
2021/04/24 07:11:17;;;;;;;20.87;18.70;;;17.70;63.90;;;;;;5006790;28;20225;-72
2021/04/24 07:13:44;;;;;;;21.33;19.03;;;17.90;62.90;;;;;;5001971;28;20229;-72
2021/04/24 07:16:11;;;;;;;27.13;20.63;;;18.00;62.00;;;;;;4999952;28;20232;-72
2021/04/24 07:18:39;;;;;;;24.60;22.03;;;18.00;62.30;;;;;;5006097;28;20230;-72
2021/04/24 07:21:07;;;;;;;23.03;20.73;;;18.10;62.20;;;;;;5002574;28;20236;-73
2021/04/24 07:23:36;;;;;;;23.10;20.70;;;18.30;61.90;;;;;;5005962;28;20230;-72
2021/04/24 07:26:03;;;;;;;21.17;18.90;;;18.60;60.90;;;;;;5005855;28;20632;-72
2021/04/24 07:28:31;;;;;;;19.30;17.30;;;18.80;59.20;;;;;;5003933;28;20225;-72
2021/04/24 07:30:57;;;;;;;19.10;17.23;;;19.00;58.50;;;;;;4994057;28;20228;-72
2021/04/24 07:33:24;;;;;;;18.87;16.90;;;19.30;57.80;;;;;;5005476;28;20235;-72
2021/04/24 07:35:51;;;;;;;18.03;16.23;;;19.50;57.80;;;;;;5002590;28;20545;-72
2021/04/24 07:38:20;;;;;;;18.73;15.70;;;19.70;57.30;;;;;;5004022;28;20231;-72
2021/04/24 07:40:47;;;;;;;17.30;15.17;;;19.90;56.00;;;;;;4988006;28;20568;-73
2021/04/24 07:43:14;;;;;;;13.73;12.53;;;20.10;55.70;;;;;;4989100;28;20749;-73
2021/04/24 07:45:41;;;;;;;11.63;9.97;;;20.20;54.30;;;;;;5002466;28;20212;-73
2021/04/24 07:48:08;;;;;;;18.10;16.33;;;20.30;52.90;;;;;;5006180;28;20314;-73
2021/04/24 07:50:36;;;;;;;17.13;15.30;;;20.50;52.90;;;;;;5002156;28;20220;-73
2021/04/24 07:53:04;;;;;;;17.83;14.70;;;20.50;53.20;;;;;;5005730;28;20215;-73
2021/04/24 07:55:31;;;;;;;14.83;13.33;;;20.60;53.20;;;;;;5005799;28;20208;-73
2021/04/24 07:57:58;;;;;;;13.40;12.00;;;20.60;52.70;;;;;;5002497;28;20235;-73
2021/04/24 08:00:26;;;;;;;14.57;10.70;;;20.60;53.10;;;;;;5004568;28;20247;-73
2021/04/24 08:02:52;;;;;;;13.13;11.60;;;20.50;52.30;;;;;;5003137;28;20220;-73
2021/04/24 08:05:19;;;;;;;12.83;10.57;;;20.60;52.70;;;;;;5002404;28;20216;-73
2021/04/24 08:07:58;;;;;;;10.93;9.10;;;20.60;50.50;;;;;;5003318;28;20230;-73
2021/04/24 08:10:25;;;;;;;12.43;10.87;;;20.70;50.90;;;;;;4985433;28;20215;-73
2021/04/24 08:12:51;;;;;;;11.07;9.93;;;20.80;51.60;;;;;;5001397;28;20224;-73
2021/04/24 08:15:18;;;;;;;9.87;8.53;;;21.00;51.10;;;;;;4987399;28;20228;-73
2021/04/24 08:17:45;;;;;;;9.00;8.20;;;21.20;49.50;;;;;;4993168;28;20308;-73
2021/04/24 08:20:14;;;;;;;6.77;6.20;;;21.30;49.70;;;;;;5004770;28;20535;-73
2021/04/24 08:22:41;;;;;;;7.33;6.73;;;21.50;49.50;;;;;;5002651;28;20538;-73
2021/04/24 08:25:09;;;;;;;11.50;10.50;;;21.70;48.10;;;;;;5002732;28;20231;-73
2021/04/24 08:27:35;;;;;;;9.63;8.73;;;21.90;47.60;;;;;;4995898;28;20250;-73
2021/04/24 08:30:06;;;;;;;7.57;6.97;;;22.00;48.80;;;;;;5001015;28;20216;-73
2021/04/24 08:32:32;;;;;;;6.57;4.70;;;22.20;47.90;;;;;;5003708;28;20636;-73
2021/04/24 08:34:59;;;;;;;5.07;4.57;;;22.30;44.10;;;;;;5005223;28;20219;-73
2021/04/24 08:37:27;;;;;;;4.33;3.30;;;22.20;43.80;;;;;;5002112;28;20303;-73
2021/04/24 08:39:53;;;;;;;4.73;4.33;;;22.30;42.20;;;;;;5005716;28;20235;-73
2021/04/24 08:42:20;;;;;;;3.97;3.57;;;22.30;41.60;;;;;;5002384;28;20247;-73
2021/04/24 08:44:51;;;;;;;6.10;4.30;;;22.30;42.40;;;;;;4991350;28;20664;-73
2021/04/24 08:47:22;;;;;;;5.17;4.53;;;22.40;42.50;;;;;;5003134;28;20222;-73
2021/04/24 08:49:51;;;;;;;4.77;3.87;;;22.50;41.70;;;;;;5001758;28;20752;-73
2021/04/24 08:52:20;;;;;;;4.67;3.77;;;22.60;41.90;;;;;;5004069;28;20215;-73
2021/04/24 08:54:47;;;;;;;3.80;3.50;;;22.70;42.40;;;;;;4993012;28;20224;-73
2021/04/24 08:57:14;;;;;;;3.93;3.53;;;22.70;40.40;;;;;;5004997;28;20691;-73
2021/04/24 08:59:41;;;;;;;4.77;3.70;;;22.60;40.20;;;;;;4998438;28;20244;-73
2021/04/24 09:02:08;;;;;;;4.20;3.80;;;22.40;39.70;;;;;;5003424;28;20243;-73
2021/04/24 09:04:36;;;;;;;4.73;3.10;;;22.30;39.20;;;;;;5004888;28;20217;-73
2021/04/24 09:07:05;;;;;;;3.63;2.63;;;22.30;40.50;;;;;;4998266;28;20308;-73
2021/04/24 09:09:31;;;;;;;2.90;2.70;;;22.40;41.70;;;;;;4986364;28;20219;-73
2021/04/24 09:12:01;;;;;;;6.40;2.57;;;22.70;41.40;;;;;;5000675;28;20238;-73
2021/04/24 09:14:30;;;;;;;3.80;2.73;;;22.90;41.10;;;;;;4990931;28;20687;-73
2021/04/24 09:16:56;;;;;;;4.33;2.97;;;23.10;40.30;;;;;;4987510;28;20706;-73
2021/04/24 09:19:29;;;;;;;5.50;3.53;;;23.20;39.90;;;;;;4987336;28;20317;-73
2021/04/24 09:22:19;;;;;;;4.73;3.87;;;23.30;38.30;;;;;;5007718;28;20250;-73
2021/04/24 09:24:55;;;;;;;5.13;4.63;;;23.30;39.80;;;;;;5000208;28;20226;-73
2021/04/24 09:27:42;;;;;;;4.23;3.83;;;23.40;39.20;;;;;;5007882;28;20557;-73
2021/04/24 09:30:23;;;;;;;5.23;4.73;;;23.50;40.10;;;;;;5008030;28;20277;-73
2021/04/24 09:32:50;;;;;;;6.03;5.43;;;23.50;39.30;;;;;;4995819;28;20251;-73
2021/04/24 09:35:21;;;;;;;5.50;5.00;;;23.50;38.40;;;;;;4998205;28;20223;-73
2021/04/24 09:38:01;;;;;;;6.10;5.50;;;23.50;39.10;;;;;;5006502;28;20216;-73
2021/04/24 09:40:29;;;;;;;11.33;5.27;;;23.70;38.70;;;;;;5000194;28;20659;-73
2021/04/24 09:43:08;;;;;;;6.47;4.90;;;23.80;38.30;;;;;;5004110;28;20673;-73
2021/04/24 09:45:40;;;;;;;6.80;5.37;;;23.90;37.70;;;;;;5004224;28;20223;-73
2021/04/24 09:48:24;;;;;;;7.20;5.30;;;24.10;36.50;;;;;;4987740;28;20548;-73
2021/04/24 09:50:52;;;;;;;7.67;5.27;;;24.00;36.00;;;;;;4999513;28;20639;-73
2021/04/24 09:53:26;;;;;;;14.37;5.40;;;23.90;35.30;;;;;;4995080;28;20220;-73
2021/04/24 09:55:54;;;;;;;5.53;4.90;;;23.90;37.00;;;;;;5003268;28;20234;-73
2021/04/24 09:58:35;;;;;;;6.27;5.57;;;24.10;37.70;;;;;;5007286;28;20218;-73
2021/04/24 10:01:26;;;;;;;5.87;4.77;;;24.30;37.80;;;;;;5006630;28;20341;-74
2021/04/24 10:03:53;;;;;;;7.40;5.03;;;24.40;37.90;;;;;;4999442;28;20217;-73
2021/04/24 10:06:41;;;;;;;4.97;3.60;;;24.40;36.70;;;;;;5000724;28;20217;-73
2021/04/24 10:09:17;;;;;;;4.27;3.80;;;24.30;37.00;;;;;;4999532;28;20275;-74
2021/04/24 10:12:08;;;;;;;7.47;4.47;;;24.40;36.70;;;;;;5006921;28;20648;-73
2021/04/24 10:14:36;;;;;;;6.13;4.30;;;24.40;36.20;;;;;;5003505;28;20211;-73
2021/04/24 10:17:06;;;;;;;4.47;3.37;;;24.40;36.60;;;;;;4995365;28;20300;-73
2021/04/24 10:19:35;;;;;;;6.20;4.53;;;24.50;36.80;;;;;;5005892;28;20714;-73
2021/04/24 10:22:04;;;;;;;6.23;3.17;;;24.60;36.30;;;;;;4994795;28;20240;-73
2021/04/24 10:24:31;;;;;;;5.33;3.57;;;24.60;37.20;;;;;;4995247;28;20212;-73
2021/04/24 10:26:58;;;;;;;4.63;4.20;;;24.70;37.90;;;;;;5005390;28;20216;-73
2021/04/24 10:29:26;;;;;;;4.00;3.20;;;24.90;36.50;;;;;;5004204;28;20218;-73
2021/04/24 10:31:53;;;;;;;7.50;3.30;;;25.00;37.10;;;;;;4982993;28;20220;-73
2021/04/24 10:34:21;;;;;;;5.37;3.57;;;25.10;36.00;;;;;;5005371;28;20292;-73
2021/04/24 10:36:48;;;;;;;7.93;3.67;;;25.00;35.20;;;;;;5006561;28;20212;-73
2021/04/24 10:39:23;;;;;;;5.17;3.53;;;25.00;35.40;;;;;;5003687;28;20220;-73
2021/04/24 10:41:58;;;;;;;6.63;3.37;;;24.90;35.20;;;;;;4985666;28;20236;-74
2021/04/24 10:44:50;;;;;;;7.63;5.07;;;24.80;35.10;;;;;;5001403;28;20243;-73
2021/04/24 10:47:37;;;;;;;5.93;3.70;;;24.60;34.70;;;;;;5001279;28;20228;-73
2021/04/24 10:50:13;;;;;;;2.80;2.60;;;24.40;34.50;;;;;;5001176;28;20657;-73
2021/04/24 10:52:42;;;;;;;3.73;2.70;;;24.30;35.30;;;;;;4998173;28;20764;-73
2021/04/24 10:55:30;;;;;;;3.73;2.50;;;24.40;35.30;;;;;;4996517;28;20565;-73
2021/04/24 10:57:57;;;;;;;3.70;2.63;;;24.50;34.80;;;;;;5004849;28;20227;-73
2021/04/24 11:00:27;;;;;;;6.37;2.77;;;24.60;34.80;;;;;;5003340;28;20248;-74
2021/04/24 11:02:57;;;;;;;13.87;4.40;;;24.70;34.40;;;;;;4994019;28;20212;-73
2021/04/24 11:05:32;;;;;;;6.23;2.87;;;24.70;34.10;;;;;;4996260;28;20248;-73
2021/04/24 11:08:20;;;;;;;6.13;2.97;;;24.70;34.10;;;;;;5005700;28;20671;-73
2021/04/24 11:10:54;;;;;;;4.43;3.13;;;24.70;36.00;;;;;;4997250;28;20219;-73
2021/04/24 11:13:22;;;;;;;5.50;3.17;;;24.60;36.00;;;;;;5005035;28;20224;-74
2021/04/24 11:15:49;;;;;;;6.60;4.43;;;24.80;35.70;;;;;;4991500;28;20603;-73
2021/04/24 11:18:16;;;;;;;4.30;3.07;;;25.00;34.90;;;;;;5003704;28;20225;-73
2021/04/24 11:20:49;;;;;;;6.53;2.80;;;25.00;34.70;;;;;;5002683;28;20236;-73
2021/04/24 11:23:48;;;;;;;6.23;3.70;;;25.00;33.60;;;;;;4984582;28;20216;-72
2021/04/24 11:26:18;;;;;;;7.10;3.83;;;24.90;35.40;;;;;;5000402;28;20876;-73
2021/04/24 11:29:08;;;;;;;7.30;3.27;;;24.90;34.80;;;;;;4999084;28;20235;-73
2021/04/24 11:32:02;;;;;;;5.97;2.97;;;24.80;34.90;;;;;;4997513;28;20222;-73
2021/04/24 11:34:34;;;;;;;4.37;3.03;;;24.80;34.70;;;;;;4998071;28;20226;-73
2021/04/24 11:37:23;;;;;;;7.40;3.40;;;24.80;35.30;;;;;;5004296;28;20304;-74
2021/04/24 11:40:20;;;;;;;5.83;3.53;;;24.80;34.10;;;;;;5001313;28;20312;-74
2021/04/24 11:43:03;;;;;;;8.40;3.27;;;24.80;34.80;;;;;;4997477;28;20302;-73
2021/04/24 11:46:02;;;;;;;5.90;2.83;;;24.80;34.70;;;;;;4988100;28;20212;-73
2021/04/24 11:48:44;;;;;;;3.33;2.63;;;24.80;34.70;;;;;;4981563;28;20310;-71
2021/04/24 11:51:32;;;;;;;4.80;3.10;;;24.70;35.10;;;;;;5003445;28;20870;-71
2021/04/24 11:54:05;;;;;;;5.13;3.20;;;24.80;34.60;;;;;;5001297;28;20592;-71
2021/04/24 11:56:32;;;;;;;7.67;2.80;;;24.70;33.50;;;;;;5002484;28;20226;-71
2021/04/24 11:59:00;;;;;;;5.43;2.97;;;24.80;35.00;;;;;;5006058;28;20223;-72
2021/04/24 12:01:28;;;;;;;5.50;3.20;;;25.00;34.00;;;;;;5002449;28;20247;-72
2021/04/24 12:03:55;;;;;;;4.90;3.60;;;25.10;34.30;;;;;;5001541;28;20223;-72
2021/04/24 12:06:42;;;;;;;4.00;2.80;;;25.10;34.70;;;;;;4994867;28;20649;-73
2021/04/24 12:09:12;;;;;;;6.93;3.73;;;25.20;35.00;;;;;;5001035;28;20208;-72
2021/04/24 12:11:41;;;;;;;5.77;3.80;;;25.10;33.70;;;;;;5007418;28;20219;-72
2021/04/24 12:14:08;;;;;;;4.13;3.33;;;25.00;33.80;;;;;;5006061;28;20232;-72
2021/04/24 12:16:41;;;;;;;4.43;4.00;;;24.90;33.80;;;;;;5002045;28;20946;-72
2021/04/24 12:19:34;;;;;;;5.27;3.50;;;24.90;34.10;;;;;;5002074;28;20263;-72
2021/04/24 12:22:05;;;;;;;4.93;3.20;;;24.80;34.40;;;;;;4996371;28;20250;-72
2021/04/24 12:24:34;;;;;;;4.03;3.20;;;24.70;34.10;;;;;;4993562;28;20229;-72
2021/04/24 12:27:35;;;;;;;4.37;3.97;;;24.60;36.10;;;;;;5004872;28;20215;-72
2021/04/24 12:30:07;;;;;;;6.63;3.97;;;24.50;35.70;;;;;;4997321;28;20215;-72
2021/04/24 12:32:46;;;;;;;5.63;3.33;;;24.50;35.50;;;;;;5005043;28;20231;-72
2021/04/24 12:35:28;;;;;;;4.77;3.73;;;24.50;35.30;;;;;;5004429;28;20689;-72
2021/04/24 12:38:07;;;;;;;4.57;4.17;;;24.50;36.80;;;;;;5005164;28;20246;-72
2021/04/24 12:40:36;;;;;;;4.47;3.50;;;24.60;36.30;;;;;;4997820;28;20216;-72
2021/04/24 12:43:08;;;;;;;9.47;3.57;;;24.60;36.50;;;;;;4996302;28;20212;-72
2021/04/24 12:45:37;;;;;;;4.83;3.47;;;24.60;38.00;;;;;;4998309;28;20894;-72
2021/04/24 12:48:11;;;;;;;6.87;3.43;;;24.70;36.50;;;;;;5003433;28;20222;-72
2021/04/24 12:50:39;;;;;;;5.13;3.33;;;24.80;36.30;;;;;;5004731;28;20223;-72